createdAt,value
2019-01-25T00:00:02.829Z,19.50
2019-01-25T00:02:29.681Z,17.13
2019-01-25T00:04:57.132Z,18.60
2019-01-25T00:07:24.780Z,17.53
2019-01-25T00:09:58.458Z,17.00
2019-01-25T00:12:19.467Z,16.80
2019-01-25T00:14:46.245Z,16.90
2019-01-25T00:17:13.544Z,17.17
2019-01-25T00:19:40.476Z,17.40
2019-01-25T00:22:07.256Z,16.97
2019-01-25T00:24:33.943Z,17.53
2019-01-25T00:27:00.755Z,16.77
2019-01-25T00:29:28.089Z,17.03
2019-01-25T00:31:54.904Z,16.63
2019-01-25T00:34:21.589Z,17.50
2019-01-25T00:36:48.355Z,16.20
2019-01-25T00:39:15.766Z,16.50
2019-01-25T00:41:42.679Z,16.67
2019-01-25T00:44:10.331Z,17.80
2019-01-25T00:46:37.224Z,17.80
2019-01-25T00:49:04.937Z,17.80
2019-01-25T00:51:32.484Z,19.50
2019-01-25T00:53:59.927Z,17.53
2019-01-25T00:56:27.359Z,18.27
2019-01-25T00:58:55.518Z,18.70
2019-01-25T01:01:22.234Z,18.57
2019-01-25T01:03:48.950Z,18.90
2019-01-25T01:06:16.392Z,19.13
2019-01-25T01:08:43.555Z,17.40
2019-01-25T01:11:11.065Z,17.97
2019-01-25T01:13:38.161Z,17.33
2019-01-25T01:16:07.131Z,20.40
2019-01-25T01:18:34.955Z,19.20
2019-01-25T01:21:01.645Z,19.10
2019-01-25T01:23:28.538Z,18.27
2019-01-25T01:25:56.221Z,18.77
2019-01-25T01:28:23.042Z,19.17
2019-01-25T01:30:49.987Z,18.33
2019-01-25T01:33:17.146Z,19.37
2019-01-25T01:35:44.289Z,19.20
2019-01-25T01:38:11.651Z,18.07
2019-01-25T01:40:40.409Z,18.27
2019-01-25T01:43:07.481Z,18.43
2019-01-25T01:45:34.322Z,19.23
2019-01-25T01:48:01.681Z,19.00
2019-01-25T01:50:30.056Z,18.10
2019-01-25T01:52:57.206Z,17.90
2019-01-25T01:55:26.473Z,18.27
2019-01-25T01:57:53.348Z,17.43
2019-01-25T02:00:20.399Z,18.07
2019-01-25T02:02:48.572Z,16.97
2019-01-25T02:05:15.413Z,18.87
2019-01-25T02:07:42.872Z,17.57
2019-01-25T02:10:10.633Z,17.53
2019-01-25T02:12:37.989Z,18.70
2019-01-25T02:15:04.831Z,17.73
2019-01-25T02:17:33.620Z,17.60
2019-01-25T02:20:01.448Z,18.80
2019-01-25T02:22:29.049Z,18.60
2019-01-25T02:24:56.611Z,17.30
2019-01-25T02:27:24.066Z,17.07
2019-01-25T02:29:52.137Z,18.33
2019-01-25T02:32:20.515Z,17.80
2019-01-25T02:34:47.463Z,17.10
2019-01-25T02:37:14.915Z,16.27
2019-01-25T02:39:41.761Z,17.97
2019-01-25T02:42:09.424Z,17.63
2019-01-25T02:44:38.495Z,16.80
2019-01-25T02:47:05.258Z,16.90
2019-01-25T02:49:32.000Z,17.10
2019-01-25T02:51:58.835Z,16.13
2019-01-25T02:54:26.913Z,17.87
2019-01-25T02:56:54.678Z,16.47
2019-01-25T02:59:23.161Z,17.20
2019-01-25T03:01:49.899Z,17.47
2019-01-25T03:04:17.154Z,15.50
2019-01-25T03:06:44.097Z,15.10
2019-01-25T03:09:11.053Z,15.77
2019-01-25T03:11:39.931Z,16.47
2019-01-25T03:14:10.408Z,16.07
2019-01-25T03:16:39.251Z,16.00
2019-01-25T03:19:06.096Z,15.13
2019-01-25T03:21:34.172Z,16.20
2019-01-25T03:24:01.009Z,17.20
2019-01-25T03:26:28.569Z,15.77
2019-01-25T03:28:55.267Z,16.17
2019-01-25T03:31:22.776Z,15.20
2019-01-25T03:33:49.569Z,15.47
2019-01-25T03:36:16.476Z,15.17
2019-01-25T03:38:43.621Z,14.83
2019-01-25T03:41:10.347Z,16.00
2019-01-25T03:43:37.164Z,15.33
2019-01-25T03:46:03.877Z,16.53
2019-01-25T03:48:30.696Z,16.73
2019-01-25T03:50:57.449Z,14.53
2019-01-25T03:53:24.127Z,16.03
2019-01-25T03:55:51.453Z,15.03
2019-01-25T03:58:18.361Z,15.10
2019-01-25T04:00:45.033Z,16.13
2019-01-25T04:03:12.891Z,14.93
2019-01-25T04:05:39.644Z,15.33
2019-01-25T04:08:07.570Z,15.00
2019-01-25T04:10:34.397Z,15.33
2019-01-25T04:13:01.188Z,15.07
2019-01-25T04:15:28.879Z,14.80
2019-01-25T04:17:56.289Z,15.77
2019-01-25T04:20:23.364Z,16.43
2019-01-25T04:22:50.844Z,15.00
2019-01-25T04:25:17.538Z,14.97
2019-01-25T04:27:44.603Z,14.83
2019-01-25T04:30:12.974Z,14.73
2019-01-25T04:32:39.750Z,15.80
2019-01-25T04:35:06.950Z,15.43
2019-01-25T04:37:33.687Z,13.90
2019-01-25T04:40:01.033Z,14.10
2019-01-25T04:42:28.070Z,14.37
2019-01-25T04:44:55.391Z,14.63
2019-01-25T04:47:22.331Z,14.07
2019-01-25T04:49:50.469Z,14.00
2019-01-25T04:52:18.101Z,13.60
2019-01-25T04:54:45.936Z,13.83
2019-01-25T04:57:12.897Z,13.73
2019-01-25T04:59:39.681Z,12.77
2019-01-25T05:02:06.424Z,13.23
2019-01-25T05:04:33.420Z,13.23
2019-01-25T05:07:00.925Z,13.60
2019-01-25T05:09:27.723Z,13.57
2019-01-25T05:11:54.434Z,13.17
2019-01-25T05:14:21.591Z,14.60
2019-01-25T05:16:49.095Z,12.37
2019-01-25T05:19:16.406Z,12.53
2019-01-25T05:21:43.255Z,13.17
2019-01-25T05:24:10.627Z,13.93
2019-01-25T05:26:39.643Z,13.17
2019-01-25T05:29:06.509Z,13.30
2019-01-25T05:31:33.504Z,13.07
2019-01-25T05:34:00.271Z,12.90
2019-01-25T05:36:26.986Z,12.97
2019-01-25T05:38:53.978Z,13.33
2019-01-25T05:41:27.830Z,13.73
2019-01-25T05:43:48.184Z,13.30
2019-01-25T05:46:15.292Z,12.80
2019-01-25T05:48:42.593Z,12.20
2019-01-25T05:51:09.501Z,13.87
2019-01-25T05:53:37.079Z,13.83
2019-01-25T05:56:03.902Z,13.67
2019-01-25T05:58:31.065Z,12.90
2019-01-25T06:00:58.549Z,13.17
2019-01-25T06:03:25.321Z,12.80
2019-01-25T06:05:52.505Z,12.77
2019-01-25T06:08:26.050Z,12.73
2019-01-25T06:10:52.812Z,12.97
2019-01-25T06:13:20.228Z,12.87
2019-01-25T06:15:47.087Z,13.67
2019-01-25T06:18:13.883Z,13.97
2019-01-25T06:20:40.830Z,12.97
2019-01-25T06:23:07.572Z,14.27
2019-01-25T06:25:35.232Z,13.47
2019-01-25T06:28:01.964Z,13.47
2019-01-25T06:30:28.681Z,14.07
2019-01-25T06:32:56.270Z,13.90
2019-01-25T06:35:23.116Z,14.80
2019-01-25T06:37:50.059Z,13.40
2019-01-25T06:40:16.903Z,13.90
2019-01-25T06:42:43.628Z,14.53
2019-01-25T06:45:10.486Z,13.47
2019-01-25T06:47:37.329Z,13.20
2019-01-25T06:50:04.173Z,14.07
2019-01-25T06:52:31.012Z,13.30
2019-01-25T06:54:57.858Z,14.60
2019-01-25T06:57:25.824Z,13.93
2019-01-25T06:59:52.669Z,15.10
2019-01-25T07:02:19.530Z,15.60
2019-01-25T07:04:46.411Z,14.27
2019-01-25T07:07:14.018Z,14.47
2019-01-25T07:09:40.961Z,14.87
2019-01-25T07:12:07.704Z,15.40
2019-01-25T07:14:34.443Z,14.23
2019-01-25T07:17:01.284Z,15.07
2019-01-25T07:19:28.029Z,14.30
2019-01-25T07:21:54.771Z,14.07
2019-01-25T07:24:21.711Z,14.67
2019-01-25T07:26:48.553Z,14.87
2019-01-25T07:29:15.396Z,14.97
2019-01-25T07:31:42.284Z,13.77
2019-01-25T07:34:09.122Z,14.27
2019-01-25T07:36:36.641Z,13.37
2019-01-25T07:39:03.501Z,14.77
2019-01-25T07:41:30.233Z,14.17
2019-01-25T07:43:57.068Z,14.73
2019-01-25T07:46:27.511Z,13.97
2019-01-25T07:48:54.439Z,14.00
2019-01-25T07:51:21.418Z,15.00
2019-01-25T07:53:48.345Z,13.00
2019-01-25T07:56:15.072Z,13.97
2019-01-25T07:58:42.015Z,13.77
2019-01-25T08:01:08.865Z,13.37
2019-01-25T08:03:35.720Z,14.43
2019-01-25T08:06:03.364Z,13.50
2019-01-25T08:08:30.206Z,13.50
2019-01-25T08:10:57.053Z,13.63
2019-01-25T08:13:23.891Z,13.33
2019-01-25T08:15:50.633Z,13.70
2019-01-25T08:18:17.482Z,13.93
2019-01-25T08:20:44.325Z,13.20
2019-01-25T08:23:11.161Z,12.43
2019-01-25T08:25:37.927Z,13.90
2019-01-25T08:28:04.860Z,12.87
2019-01-25T08:30:31.703Z,13.67
2019-01-25T08:32:58.547Z,13.97
2019-01-25T08:35:25.482Z,13.83
2019-01-25T08:37:52.220Z,13.53
2019-01-25T08:40:19.087Z,13.00
2019-01-25T08:42:46.008Z,12.73
2019-01-25T08:45:12.755Z,13.20
2019-01-25T08:47:39.592Z,12.70
2019-01-25T08:50:06.552Z,12.07
2019-01-25T08:52:34.198Z,12.37
2019-01-25T08:55:00.937Z,12.07
2019-01-25T08:57:27.882Z,12.03
2019-01-25T08:59:54.725Z,12.53
2019-01-25T09:02:21.566Z,12.23
2019-01-25T09:04:48.417Z,12.20
2019-01-25T09:07:15.164Z,12.47
2019-01-25T09:09:41.993Z,11.23
2019-01-25T09:12:08.939Z,12.20
2019-01-25T09:14:35.681Z,12.50
2019-01-25T09:17:02.764Z,11.67
2019-01-25T09:19:29.672Z,12.20
2019-01-25T09:21:56.720Z,11.50
2019-01-25T09:24:23.668Z,11.53
2019-01-25T09:26:50.405Z,12.43
2019-01-25T09:29:17.247Z,11.70
2019-01-25T09:31:44.090Z,11.77
2019-01-25T09:34:10.831Z,11.33
2019-01-25T09:36:37.574Z,12.03
2019-01-25T09:39:04.723Z,10.10
2019-01-25T09:41:31.713Z,11.50
2019-01-25T09:43:59.334Z,10.83
2019-01-25T09:46:26.171Z,11.23
2019-01-25T09:48:52.911Z,11.20
2019-01-25T09:51:19.865Z,11.17
2019-01-25T09:53:46.705Z,10.80
2019-01-25T09:56:13.549Z,10.43
2019-01-25T09:58:40.496Z,11.57
2019-01-25T10:01:07.336Z,10.70
2019-01-25T10:03:34.179Z,10.87
2019-01-25T10:06:00.919Z,11.23
2019-01-25T10:08:27.748Z,10.57
2019-01-25T10:10:54.497Z,10.70
2019-01-25T10:13:21.347Z,10.17
2019-01-25T10:15:48.706Z,10.47
2019-01-25T10:18:15.543Z,10.47
2019-01-25T10:20:42.485Z,10.77
2019-01-25T10:23:09.434Z,11.17
2019-01-25T10:25:36.276Z,10.90
2019-01-25T10:28:03.014Z,11.00
2019-01-25T10:30:30.783Z,10.47
2019-01-25T10:32:57.521Z,11.00
2019-01-25T10:35:24.465Z,11.80
2019-01-25T10:37:51.311Z,10.93
2019-01-25T10:40:19.064Z,11.17
2019-01-25T10:42:53.007Z,10.83
2019-01-25T10:45:13.472Z,10.97
2019-01-25T10:47:40.190Z,10.53
2019-01-25T10:50:07.772Z,11.37
2019-01-25T10:52:34.717Z,10.17
2019-01-25T10:55:01.568Z,11.07
2019-01-25T10:57:28.407Z,10.57
2019-01-25T10:59:55.245Z,10.93
2019-01-25T11:02:22.706Z,10.30
2019-01-25T11:04:49.547Z,10.00
2019-01-25T11:07:16.367Z,10.20
2019-01-25T11:09:43.129Z,10.57
2019-01-25T11:12:10.074Z,10.03
2019-01-25T11:14:36.816Z,9.80
2019-01-25T11:17:03.665Z,9.27
2019-01-25T11:19:30.388Z,10.00
2019-01-25T11:21:57.154Z,9.87
2019-01-25T11:24:24.084Z,9.50
2019-01-25T11:26:50.850Z,11.17
2019-01-25T11:29:17.665Z,11.47
2019-01-25T11:31:45.434Z,11.60
2019-01-25T11:34:12.160Z,11.23
2019-01-25T11:36:38.911Z,10.97
2019-01-25T11:39:05.740Z,11.60
2019-01-25T11:41:32.496Z,11.57
2019-01-25T11:43:59.340Z,11.87
2019-01-25T11:46:26.288Z,11.50
2019-01-25T11:48:53.128Z,10.60
2019-01-25T11:51:20.092Z,9.90
2019-01-25T11:53:46.846Z,9.17
2019-01-25T11:56:13.574Z,9.50
2019-01-25T11:58:41.147Z,9.80
2019-01-25T12:01:08.097Z,9.37
2019-01-25T12:03:34.833Z,9.00
2019-01-25T12:06:02.001Z,8.57
2019-01-25T12:08:28.992Z,8.73
2019-01-25T12:10:55.935Z,8.47
2019-01-25T12:13:22.657Z,8.17
2019-01-25T12:15:51.408Z,8.37
2019-01-25T12:18:17.205Z,8.87
2019-01-25T12:20:44.120Z,8.53
2019-01-25T12:23:12.032Z,8.07
2019-01-25T12:25:37.638Z,8.63
2019-01-25T12:28:05.439Z,8.80
2019-01-25T12:30:37.545Z,8.77
2019-01-25T12:32:59.763Z,8.27
2019-01-25T12:35:26.833Z,8.23
2019-01-25T12:37:54.150Z,8.43
2019-01-25T12:40:20.924Z,8.83
2019-01-25T12:42:47.703Z,8.63
2019-01-25T12:45:17.334Z,9.20
2019-01-25T12:47:44.957Z,9.57
2019-01-25T12:50:16.683Z,9.10
2019-01-25T12:52:44.734Z,9.80
2019-01-25T12:55:11.573Z,8.77
2019-01-25T12:57:38.305Z,8.73
2019-01-25T13:00:05.040Z,9.23
2019-01-25T13:02:33.415Z,8.57
2019-01-25T13:05:00.416Z,9.10
2019-01-25T13:07:27.251Z,8.83
2019-01-25T13:09:54.930Z,9.47
2019-01-25T13:12:25.182Z,9.00
2019-01-25T13:14:50.029Z,9.20
2019-01-25T13:17:16.784Z,9.00
2019-01-25T13:19:43.561Z,9.00
2019-01-25T13:22:11.558Z,8.83
2019-01-25T13:24:38.504Z,9.60
2019-01-25T13:27:05.373Z,8.63
2019-01-25T13:29:32.771Z,9.57
2019-01-25T13:32:00.103Z,9.27
2019-01-25T13:34:27.164Z,8.93
2019-01-25T13:36:57.247Z,8.00
2019-01-25T13:39:21.485Z,9.50
2019-01-25T13:41:48.710Z,8.70
2019-01-25T13:44:15.499Z,9.43
2019-01-25T13:46:42.225Z,8.30
2019-01-25T13:49:11.280Z,8.70
2019-01-25T13:51:38.058Z,8.70
2019-01-25T13:54:04.843Z,8.83
2019-01-25T13:56:32.609Z,8.60
2019-01-25T13:58:59.367Z,8.47
2019-01-25T14:01:34.338Z,8.87
2019-01-25T14:03:54.570Z,8.20
2019-01-25T14:06:21.411Z,8.70
2019-01-25T14:08:48.362Z,8.73
2019-01-25T14:11:15.123Z,9.07
2019-01-25T14:13:46.690Z,9.17
2019-01-25T14:16:11.183Z,9.03
2019-01-25T14:18:38.019Z,9.73
2019-01-25T14:21:05.137Z,8.37
2019-01-25T14:23:31.870Z,8.90
2019-01-25T14:26:11.205Z,10.03
2019-01-25T14:28:38.138Z,8.80
2019-01-25T14:31:05.621Z,9.00
2019-01-25T14:33:33.357Z,8.63
2019-01-25T14:36:01.296Z,8.87
2019-01-25T14:38:28.794Z,8.83
2019-01-25T14:40:58.213Z,9.17
2019-01-25T14:43:25.314Z,8.67
2019-01-25T14:45:52.116Z,8.97
2019-01-25T14:48:18.825Z,9.87
2019-01-25T14:50:45.678Z,8.83
2019-01-25T14:53:13.246Z,9.23
2019-01-25T14:55:40.194Z,9.00
2019-01-25T14:58:06.938Z,8.80
2019-01-25T15:00:37.418Z,10.10
2019-01-25T15:03:04.375Z,10.03
2019-01-25T15:05:31.083Z,8.70
2019-01-25T15:08:00.974Z,9.13
2019-01-25T15:10:29.443Z,10.07
2019-01-25T15:12:56.339Z,9.40
2019-01-25T15:15:23.906Z,10.73
2019-01-25T15:17:55.139Z,9.80
2019-01-25T15:20:22.030Z,9.93
2019-01-25T15:22:48.772Z,9.10
2019-01-25T15:27:48.139Z,8.83
2019-01-25T15:30:21.403Z,9.17
2019-01-25T15:32:48.278Z,8.97
2019-01-25T15:35:15.988Z,8.87
2019-01-25T15:37:43.113Z,9.33
2019-01-25T15:40:10.262Z,10.40
2019-01-25T15:42:37.265Z,9.17
2019-01-25T15:45:04.198Z,9.63
2019-01-25T15:47:34.246Z,8.90
2019-01-25T15:50:02.487Z,9.60
2019-01-25T15:52:29.362Z,8.90
2019-01-25T15:54:56.286Z,9.17
2019-01-25T15:57:23.833Z,9.50
2019-01-25T15:59:51.496Z,9.70
2019-01-25T16:02:19.692Z,8.33
2019-01-25T16:04:46.584Z,9.47
2019-01-25T16:07:13.487Z,9.17
2019-01-25T16:09:40.311Z,8.93
2019-01-25T16:12:07.230Z,8.77
2019-01-25T16:14:34.868Z,8.47
2019-01-25T16:17:02.407Z,8.77
2019-01-25T16:19:29.377Z,8.93
2019-01-25T16:21:56.255Z,9.07
2019-01-25T16:24:23.181Z,8.70
2019-01-25T16:26:49.910Z,8.83
2019-01-25T16:29:16.653Z,8.20
2019-01-25T16:31:44.250Z,8.67
2019-01-25T16:34:12.118Z,7.80
2019-01-25T16:36:40.069Z,8.33
2019-01-25T16:39:07.703Z,8.13
2019-01-25T16:41:34.529Z,8.07
2019-01-25T16:44:01.364Z,7.87
2019-01-25T16:46:28.881Z,8.37
2019-01-25T16:48:55.659Z,7.80
2019-01-25T16:51:24.013Z,8.33
2019-01-25T16:53:50.169Z,7.97
2019-01-25T16:56:17.729Z,7.33
2019-01-25T16:58:45.267Z,8.43
2019-01-25T17:01:11.971Z,7.63
2019-01-25T17:03:39.464Z,7.80
2019-01-25T17:06:07.070Z,7.60
2019-01-25T17:08:33.894Z,7.70
2019-01-25T17:11:00.923Z,7.67
2019-01-25T17:13:28.425Z,7.03
2019-01-25T17:15:55.489Z,7.40
2019-01-25T17:18:22.072Z,7.20
2019-01-25T17:20:49.526Z,7.10
2019-01-25T17:23:17.565Z,7.77
2019-01-25T17:25:44.697Z,7.03
2019-01-25T17:28:11.480Z,8.20
2019-01-25T17:30:38.550Z,8.10
2019-01-25T17:33:06.482Z,7.30
2019-01-25T17:35:33.281Z,7.87
2019-01-25T17:38:00.140Z,7.30
2019-01-25T17:40:27.755Z,7.10
2019-01-25T17:42:55.316Z,7.13
2019-01-25T17:45:25.139Z,6.73
2019-01-25T17:47:52.553Z,7.10
2019-01-25T17:50:19.614Z,7.10
2019-01-25T17:52:46.647Z,6.40
2019-01-25T17:55:14.152Z,6.30
2019-01-25T17:57:42.019Z,6.80
2019-01-25T18:00:10.649Z,6.63
2019-01-25T18:02:37.393Z,6.87
2019-01-25T18:05:04.486Z,6.70
2019-01-25T18:07:31.562Z,6.87
2019-01-25T18:09:58.327Z,6.90
2019-01-25T18:12:25.069Z,7.03
2019-01-25T18:14:52.195Z,7.17
2019-01-25T18:17:18.973Z,7.00
2019-01-25T18:19:45.791Z,5.97
2019-01-25T18:22:12.703Z,6.77
2019-01-25T18:24:39.467Z,6.60
2019-01-25T18:27:06.261Z,7.50
2019-01-25T18:29:33.059Z,7.97
2019-01-25T18:31:59.717Z,6.47
2019-01-25T18:34:26.572Z,6.60
2019-01-25T18:36:53.375Z,6.60
2019-01-25T18:39:21.194Z,7.00
2019-01-25T18:41:48.724Z,6.77
2019-01-25T18:44:15.528Z,6.57
2019-01-25T18:46:42.238Z,13.97
2019-01-25T18:49:08.964Z,8.67
2019-01-25T18:51:35.798Z,6.53
2019-01-25T18:54:02.680Z,6.43
2019-01-25T18:56:30.663Z,7.67
2019-01-25T18:58:57.625Z,7.13
2019-01-25T19:01:25.030Z,6.63
2019-01-25T19:03:53.221Z,7.60
2019-01-25T19:06:22.906Z,6.50
2019-01-25T19:08:49.607Z,7.00
2019-01-25T19:11:17.391Z,7.30
2019-01-25T19:13:45.109Z,6.90
2019-01-25T19:16:11.893Z,6.80
2019-01-25T19:18:39.027Z,7.30
2019-01-25T19:21:06.095Z,6.73
2019-01-25T19:23:32.857Z,7.03
2019-01-25T19:26:00.331Z,6.33
2019-01-25T19:28:27.929Z,6.20
2019-01-25T19:30:54.635Z,6.33
2019-01-25T19:33:22.682Z,6.40
2019-01-25T19:35:49.666Z,6.53
2019-01-25T19:38:16.709Z,5.97
2019-01-25T19:40:43.854Z,6.50
2019-01-25T19:43:10.829Z,5.97
2019-01-25T19:45:37.733Z,6.33
2019-01-25T19:48:05.446Z,6.33
2019-01-25T19:50:32.555Z,6.07
2019-01-25T19:52:59.618Z,5.90
2019-01-25T19:55:28.272Z,6.03
2019-01-25T19:57:56.034Z,5.80
2019-01-25T20:00:36.587Z,5.60
2019-01-25T20:03:05.546Z,5.90
2019-01-25T20:05:32.370Z,5.87
2019-01-25T20:07:59.082Z,5.67
2019-01-25T20:10:26.684Z,5.30
2019-01-25T20:12:57.151Z,5.97
2019-01-25T20:15:24.902Z,5.07
2019-01-25T20:17:52.537Z,4.93
2019-01-25T20:20:21.339Z,4.43
2019-01-25T20:22:48.203Z,4.67
2019-01-25T20:25:17.368Z,4.97
2019-01-25T20:27:44.697Z,4.40
2019-01-25T20:30:14.478Z,5.00
2019-01-25T20:32:41.672Z,4.57
2019-01-25T20:35:08.548Z,4.83
2019-01-25T20:37:36.180Z,4.47
2019-01-25T20:40:03.004Z,4.27
2019-01-25T20:42:30.728Z,4.60
2019-01-25T20:44:58.507Z,4.03
2019-01-25T20:47:26.032Z,4.10
2019-01-25T20:49:53.241Z,4.40
2019-01-25T20:52:21.028Z,3.60
2019-01-25T20:54:47.779Z,3.73
2019-01-25T20:57:14.493Z,3.93
2019-01-25T20:59:42.804Z,3.10
2019-01-25T21:02:09.566Z,3.37
2019-01-25T21:04:37.649Z,2.97
2019-01-25T21:07:05.453Z,2.87
2019-01-25T21:09:32.235Z,2.90
2019-01-25T21:11:59.956Z,3.17
2019-01-25T21:14:27.031Z,3.17
2019-01-25T21:16:54.034Z,3.50
2019-01-25T21:19:22.195Z,3.67
2019-01-25T21:21:50.009Z,3.27
2019-01-25T21:24:16.755Z,3.07
2019-01-25T21:26:44.141Z,3.27
2019-01-25T21:29:11.986Z,3.00
2019-01-25T21:31:38.736Z,2.50
2019-01-25T21:34:05.884Z,3.27
2019-01-25T21:36:32.930Z,3.10
2019-01-25T21:38:59.643Z,2.67
2019-01-25T21:41:26.513Z,3.13
2019-01-25T21:43:53.230Z,3.20
2019-01-25T21:46:20.046Z,2.83
2019-01-25T21:48:47.235Z,2.40
2019-01-25T21:51:13.995Z,2.80
2019-01-25T21:53:41.290Z,3.20
2019-01-25T21:56:08.437Z,2.87
2019-01-25T21:58:36.817Z,2.60
2019-01-25T22:01:04.480Z,2.57
2019-01-25T22:03:33.105Z,3.20
2019-01-25T22:06:00.779Z,2.77
2019-01-25T22:08:28.851Z,3.30
2019-01-25T22:10:55.890Z,3.30
2019-01-25T22:13:22.832Z,2.70
2019-01-25T22:15:51.176Z,3.10
2019-01-25T22:18:17.133Z,2.73
2019-01-25T22:20:43.932Z,3.07
2019-01-25T22:23:10.818Z,2.90
2019-01-25T22:25:37.659Z,3.07
2019-01-25T22:28:04.710Z,3.00
2019-01-25T22:30:31.552Z,2.60
2019-01-25T22:32:58.595Z,3.10
2019-01-25T22:35:25.474Z,2.70
2019-01-25T22:37:53.374Z,2.80
2019-01-25T22:40:22.097Z,3.17
2019-01-25T22:42:49.152Z,2.60
2019-01-25T22:45:15.991Z,2.73
2019-01-25T22:47:43.751Z,2.87
2019-01-25T22:50:11.412Z,2.70
2019-01-25T22:52:38.152Z,2.73
2019-01-25T22:55:06.112Z,2.60
2019-01-25T22:57:33.785Z,2.63
2019-01-25T23:00:00.635Z,3.00
2019-01-25T23:02:27.570Z,2.60
2019-01-25T23:04:55.646Z,2.90
2019-01-25T23:07:22.592Z,2.30
2019-01-25T23:09:49.535Z,2.43
2019-01-25T23:12:17.743Z,2.60
2019-01-25T23:14:47.314Z,2.00
2019-01-25T23:17:14.983Z,2.50
2019-01-25T23:19:42.845Z,2.53
2019-01-25T23:22:10.535Z,2.67
2019-01-25T23:24:37.326Z,2.70
2019-01-25T23:27:04.297Z,2.73
2019-01-25T23:29:31.343Z,2.80
2019-01-25T23:31:58.803Z,2.13
2019-01-25T23:34:25.953Z,2.40
2019-01-25T23:36:53.520Z,2.30
2019-01-25T23:39:20.876Z,2.70
2019-01-25T23:41:47.647Z,2.57
2019-01-25T23:44:14.392Z,2.23
2019-01-25T23:46:41.176Z,2.33
2019-01-25T23:49:08.175Z,2.50
2019-01-25T23:51:34.928Z,2.17
2019-01-25T23:54:01.761Z,2.27
2019-01-25T23:56:28.511Z,2.50
2019-01-25T23:58:55.249Z,2.40
